createdAt,value
2019-04-29T00:01:05.055Z,9.10
2019-04-29T00:03:52.107Z,9.10
2019-04-29T00:06:39.105Z,9.10
2019-04-29T00:09:26.937Z,9.00
2019-04-29T00:12:14.449Z,9.10
2019-04-29T00:15:09.725Z,9.10
2019-04-29T00:18:00.741Z,9.00
2019-04-29T00:20:49.910Z,8.90
2019-04-29T00:23:37.409Z,8.70
2019-04-29T00:26:24.706Z,8.80
2019-04-29T00:29:11.641Z,8.80
2019-04-29T00:31:59.089Z,8.70
2019-04-29T00:34:46.925Z,8.90
2019-04-29T00:37:49.814Z,8.90
2019-04-29T00:40:57.886Z,8.80
2019-04-29T00:43:52.065Z,8.80
2019-04-29T00:46:39.376Z,8.80
2019-04-29T00:49:26.782Z,8.80
2019-04-29T00:52:14.061Z,8.80
2019-04-29T00:55:07.151Z,8.70
2019-04-29T00:57:54.314Z,8.70
2019-04-29T01:00:42.413Z,8.70
2019-04-29T01:03:29.973Z,8.70
2019-04-29T01:06:17.186Z,8.60
2019-04-29T01:09:08.162Z,8.60
2019-04-29T01:11:55.350Z,8.70
2019-04-29T01:14:42.902Z,8.70
2019-04-29T01:17:29.901Z,8.60
2019-04-29T01:20:16.922Z,8.60
2019-04-29T01:23:04.321Z,8.50
2019-04-29T01:25:55.921Z,8.60
2019-04-29T01:28:49.436Z,8.40
2019-04-29T01:31:36.981Z,8.40
2019-04-29T01:34:29.193Z,8.50
2019-04-29T01:37:16.386Z,8.50
2019-04-29T01:40:21.478Z,8.50
2019-04-29T01:43:08.494Z,8.50
2019-04-29T01:45:55.917Z,8.40
2019-04-29T01:48:42.878Z,8.30
2019-04-29T01:51:30.113Z,8.40
2019-04-29T01:54:17.584Z,8.30
2019-04-29T01:57:04.683Z,8.40
2019-04-29T01:59:52.145Z,8.40
2019-04-29T02:02:39.353Z,8.30
2019-04-29T02:05:27.069Z,8.30
2019-04-29T02:08:14.305Z,8.20
2019-04-29T02:11:01.581Z,8.20
2019-04-29T02:13:48.545Z,8.20
2019-04-29T02:16:35.689Z,8.10
2019-04-29T02:19:22.877Z,8.00
2019-04-29T02:22:26.665Z,8.10
2019-04-29T02:25:21.570Z,8.10
2019-04-29T02:28:09.133Z,8.00
2019-04-29T02:30:57.410Z,8.00
2019-04-29T02:33:44.926Z,8.00
2019-04-29T02:36:32.325Z,8.00
2019-04-29T02:39:37.371Z,7.90
2019-04-29T02:42:43.186Z,7.90
2019-04-29T02:45:33.320Z,7.90
2019-04-29T02:48:20.926Z,7.90
2019-04-29T02:51:08.244Z,7.90
2019-04-29T02:53:55.458Z,7.90
2019-04-29T02:56:44.971Z,7.80
2019-04-29T02:59:36.609Z,7.80
2019-04-29T03:02:48.997Z,7.80
2019-04-29T03:05:42.006Z,7.70
2019-04-29T03:08:29.359Z,7.70
2019-04-29T03:11:16.581Z,7.60
2019-04-29T03:14:03.545Z,7.70
2019-04-29T03:16:50.999Z,7.50
2019-04-29T03:19:40.486Z,7.60
2019-04-29T03:22:27.842Z,7.60
2019-04-29T03:25:15.205Z,7.70
2019-04-29T03:28:02.478Z,7.70
2019-04-29T03:30:49.958Z,7.50
2019-04-29T03:33:37.441Z,7.60
2019-04-29T03:36:24.618Z,7.60
2019-04-29T03:39:11.982Z,7.60
2019-04-29T03:41:59.285Z,7.60
2019-04-29T03:44:46.932Z,7.60
2019-04-29T03:47:34.420Z,7.60
2019-04-29T03:50:21.923Z,7.40
2019-04-29T03:53:09.127Z,7.50
2019-04-29T03:55:56.866Z,7.50
2019-04-29T03:58:44.076Z,7.50
2019-04-29T04:01:43.343Z,7.60
2019-04-29T04:04:48.458Z,7.60
2019-04-29T04:07:44.218Z,7.60
2019-04-29T04:10:31.436Z,7.70
2019-04-29T04:13:18.805Z,7.70
2019-04-29T04:16:07.727Z,7.70
2019-04-29T04:19:05.490Z,7.70
2019-04-29T04:21:53.117Z,7.80
2019-04-29T04:24:40.580Z,7.80
2019-04-29T04:27:27.481Z,7.80
2019-04-29T04:30:16.031Z,7.80
2019-04-29T04:33:03.681Z,7.70
2019-04-29T04:35:50.899Z,7.50
2019-04-29T04:38:38.367Z,7.70
2019-04-29T04:41:26.058Z,7.20
2019-04-29T04:44:13.474Z,7.00
2019-04-29T04:47:00.706Z,7.10
2019-04-29T04:49:48.501Z,7.10
2019-04-29T04:52:35.667Z,7.30
2019-04-29T04:55:25.049Z,7.20
2019-04-29T04:58:12.497Z,7.20
2019-04-29T05:00:59.437Z,7.30
2019-04-29T05:03:46.377Z,7.50
2019-04-29T05:06:33.285Z,7.60
2019-04-29T05:09:20.265Z,7.70
2019-04-29T05:12:07.870Z,7.70
2019-04-29T05:14:55.117Z,7.80
2019-04-29T05:17:42.400Z,7.70
2019-04-29T05:20:29.807Z,7.80
2019-04-29T05:23:17.229Z,7.80
2019-04-29T05:26:04.729Z,7.80
2019-04-29T05:28:52.038Z,7.90
2019-04-29T05:31:39.243Z,7.90
2019-04-29T05:34:27.833Z,8.00
2019-04-29T05:37:21.129Z,8.00
2019-04-29T05:40:08.874Z,8.00
2019-04-29T05:42:56.317Z,8.10
2019-04-29T05:46:03.021Z,8.10
2019-04-29T05:48:50.193Z,8.10
2019-04-29T05:51:43.669Z,8.30
2019-04-29T05:54:33.446Z,8.30
2019-04-29T05:57:25.397Z,8.40
2019-04-29T06:00:10.125Z,8.40
2019-04-29T06:02:57.434Z,8.40
2019-04-29T06:05:44.641Z,8.50
2019-04-29T06:08:34.485Z,8.70
2019-04-29T06:11:23.247Z,8.70
2019-04-29T06:14:10.108Z,8.80
2019-04-29T06:17:02.993Z,8.90
2019-04-29T06:19:46.515Z,9.00
2019-04-29T06:22:33.736Z,9.00
2019-04-29T06:25:20.790Z,8.70
2019-04-29T06:28:08.217Z,8.90
2019-04-29T06:30:55.481Z,9.00
2019-04-29T06:33:42.437Z,9.00
2019-04-29T06:36:29.401Z,9.20
2019-04-29T06:39:17.036Z,9.20
2019-04-29T06:42:04.147Z,9.20
2019-04-29T06:44:51.530Z,9.30
2019-04-29T06:47:38.989Z,9.30
2019-04-29T06:50:26.433Z,9.40
2019-04-29T06:53:16.420Z,9.40
2019-04-29T06:56:02.908Z,9.40
2019-04-29T06:58:50.042Z,9.60
2019-04-29T07:01:38.632Z,9.70
2019-04-29T07:04:26.001Z,9.70
2019-04-29T07:07:13.506Z,9.50
2019-04-29T07:10:00.449Z,9.70
2019-04-29T07:12:48.474Z,9.60
2019-04-29T07:15:36.089Z,9.70
2019-04-29T07:18:23.105Z,9.90
2019-04-29T07:21:11.925Z,10.00
2019-04-29T07:23:59.069Z,9.90
2019-04-29T07:26:46.417Z,10.20
2019-04-29T07:29:33.562Z,10.10
2019-04-29T07:32:20.802Z,10.20
2019-04-29T07:35:09.911Z,10.30
2019-04-29T07:37:57.029Z,10.40
2019-04-29T07:40:44.702Z,10.60
2019-04-29T07:43:31.881Z,10.50
2019-04-29T07:46:36.291Z,10.50
2019-04-29T07:49:23.405Z,10.50
2019-04-29T07:52:14.414Z,10.70
2019-04-29T07:54:59.854Z,10.50
2019-04-29T07:57:47.743Z,10.70
2019-04-29T08:00:36.466Z,10.80
2019-04-29T08:03:23.692Z,10.90
2019-04-29T08:06:11.865Z,11.10
2019-04-29T08:09:07.405Z,11.00
2019-04-29T08:11:49.204Z,10.90
2019-04-29T08:14:38.064Z,10.90
2019-04-29T08:17:25.298Z,11.00
2019-04-29T08:20:14.611Z,11.10
2019-04-29T08:23:02.603Z,11.10
2019-04-29T08:25:51.613Z,10.90
2019-04-29T08:28:38.834Z,11.20
2019-04-29T08:31:25.806Z,11.30
2019-04-29T08:34:12.866Z,11.30
2019-04-29T08:36:59.808Z,11.30
2019-04-29T08:40:03.479Z,11.40
2019-04-29T08:42:41.383Z,11.20
2019-04-29T08:45:47.306Z,11.50
2019-04-29T08:48:34.839Z,11.50
2019-04-29T08:51:22.042Z,11.50
2019-04-29T08:54:08.968Z,11.40
2019-04-29T08:57:02.735Z,11.30
2019-04-29T08:59:44.954Z,11.20
2019-04-29T09:02:34.936Z,11.20
2019-04-29T09:05:20.757Z,11.20
2019-04-29T09:08:08.308Z,11.10
2019-04-29T09:10:55.835Z,11.30
2019-04-29T09:13:43.070Z,11.30
2019-04-29T09:16:30.373Z,11.20
2019-04-29T09:19:17.661Z,11.20
2019-04-29T09:22:07.238Z,11.30
2019-04-29T09:25:16.774Z,11.40
2019-04-29T09:28:08.136Z,11.30
2019-04-29T09:30:55.465Z,11.50
2019-04-29T09:33:44.109Z,11.40
2019-04-29T09:36:31.449Z,11.50
2019-04-29T09:39:21.268Z,11.50
2019-04-29T09:42:18.678Z,11.60
2019-04-29T09:45:24.172Z,11.60
2019-04-29T09:48:08.841Z,11.60
2019-04-29T09:50:56.061Z,11.60
2019-04-29T09:53:43.011Z,11.60
2019-04-29T09:56:30.108Z,11.50
2019-04-29T09:59:42.185Z,11.50
2019-04-29T10:02:47.993Z,11.30
2019-04-29T10:05:41.097Z,11.40
2019-04-29T10:08:28.712Z,11.40
2019-04-29T10:11:16.290Z,11.30
2019-04-29T10:14:03.196Z,11.30
2019-04-29T10:17:15.318Z,11.30
2019-04-29T10:20:29.737Z,11.40
2019-04-29T10:23:17.062Z,11.40
2019-04-29T10:26:04.210Z,11.40
2019-04-29T10:28:56.308Z,11.20
2019-04-29T10:31:44.074Z,11.20
2019-04-29T10:34:33.004Z,11.20
2019-04-29T10:37:23.822Z,11.20
2019-04-29T10:40:31.429Z,11.20
2019-04-29T10:43:37.781Z,11.20
2019-04-29T10:46:42.434Z,11.10
2019-04-29T10:49:39.262Z,11.00
2019-04-29T10:52:26.505Z,11.00
2019-04-29T10:55:14.729Z,11.10
2019-04-29T10:58:02.033Z,11.20
2019-04-29T11:02:09.334Z,11.30
2019-04-29T11:04:55.573Z,11.30
2019-04-29T11:07:43.596Z,11.20
2019-04-29T11:10:31.941Z,11.00
2019-04-29T11:13:19.621Z,11.20
2019-04-29T11:16:07.473Z,11.30
2019-04-29T11:18:59.632Z,11.10
2019-04-29T11:21:43.952Z,11.20
2019-04-29T11:24:52.003Z,11.30
2019-04-29T11:27:46.865Z,11.30
2019-04-29T11:30:39.381Z,11.30
2019-04-29T11:33:41.575Z,11.20
2019-04-29T11:36:28.702Z,11.20
2019-04-29T11:39:16.573Z,11.20
2019-04-29T11:42:07.734Z,11.20
2019-04-29T11:44:57.158Z,11.10
2019-04-29T11:47:43.665Z,11.10
2019-04-29T11:50:36.593Z,11.10
2019-04-29T11:53:23.946Z,11.20
2019-04-29T11:56:11.409Z,11.10
2019-04-29T11:59:11.031Z,11.10
2019-04-29T12:02:15.478Z,11.10
2019-04-29T12:05:17.094Z,11.10
2019-04-29T12:08:11.460Z,11.00
2019-04-29T12:11:06.483Z,11.10
2019-04-29T12:13:49.350Z,11.00
2019-04-29T12:16:40.478Z,11.10
2019-04-29T12:19:30.852Z,11.10
2019-04-29T12:22:28.385Z,11.20
2019-04-29T12:25:07.114Z,11.20
2019-04-29T12:28:01.549Z,11.10
2019-04-29T12:30:44.812Z,11.00
2019-04-29T12:33:38.130Z,11.00
2019-04-29T12:36:25.545Z,11.10
2019-04-29T12:39:43.156Z,11.10
2019-04-29T12:42:44.497Z,11.10
2019-04-29T12:45:38.289Z,11.10
2019-04-29T12:48:25.568Z,11.10
2019-04-29T12:51:16.935Z,11.00
2019-04-29T12:54:03.905Z,11.00
2019-04-29T12:56:51.424Z,11.10
2019-04-29T12:59:38.462Z,11.00
2019-04-29T13:02:45.219Z,11.00
2019-04-29T13:05:58.437Z,10.90
2019-04-29T13:08:45.065Z,10.90
2019-04-29T13:11:45.362Z,11.10
2019-04-29T13:14:23.225Z,11.10
2019-04-29T13:17:30.358Z,11.20
2019-04-29T13:20:18.357Z,11.30
2019-04-29T13:23:17.686Z,11.20
2019-04-29T13:25:57.729Z,11.30
2019-04-29T13:28:58.950Z,11.30
2019-04-29T13:31:38.360Z,11.20
2019-04-29T13:34:31.029Z,11.20
2019-04-29T13:37:18.936Z,11.20
2019-04-29T13:40:06.754Z,11.30
2019-04-29T13:42:54.226Z,11.50
2019-04-29T13:45:47.561Z,11.40
2019-04-29T13:48:55.814Z,11.30
2019-04-29T13:51:41.938Z,11.40
2019-04-29T13:54:29.420Z,11.40
2019-04-29T13:57:16.478Z,11.30
2019-04-29T14:00:29.930Z,11.50
2019-04-29T14:03:21.902Z,11.50
2019-04-29T14:06:09.112Z,11.50
2019-04-29T14:09:00.087Z,11.40
2019-04-29T14:11:45.719Z,11.30
2019-04-29T14:14:33.275Z,11.50
2019-04-29T14:18:53.559Z,11.40
2019-04-29T14:20:10.886Z,11.40
2019-04-29T14:22:58.550Z,11.40
2019-04-29T14:25:45.965Z,11.50
2019-04-29T14:28:33.121Z,11.50
2019-04-29T14:31:22.869Z,11.40
2019-04-29T14:34:20.442Z,11.50
2019-04-29T14:37:21.177Z,11.60
2019-04-29T14:39:57.129Z,11.50
2019-04-29T14:42:57.988Z,11.50
2019-04-29T14:46:04.004Z,11.50
2019-04-29T14:48:59.459Z,11.30
2019-04-29T14:51:44.305Z,11.50
2019-04-29T14:54:31.534Z,11.60
2019-04-29T14:57:18.438Z,11.50
2019-04-29T15:00:08.405Z,11.60
2019-04-29T15:02:59.911Z,11.50
2019-04-29T15:05:44.232Z,11.60
2019-04-29T15:08:32.012Z,11.60
2019-04-29T15:11:31.449Z,11.60
2019-04-29T15:14:28.640Z,11.60
2019-04-29T15:17:30.870Z,11.50
2019-04-29T15:20:32.248Z,11.50
2019-04-29T15:23:28.288Z,11.50
2019-04-29T15:26:08.917Z,11.40
2019-04-29T15:28:56.130Z,11.40
2019-04-29T15:31:47.037Z,11.40
2019-04-29T15:34:32.172Z,11.50
2019-04-29T15:37:19.350Z,11.40
2019-04-29T15:40:07.442Z,11.40
2019-04-29T15:42:54.789Z,11.50
2019-04-29T15:45:42.186Z,11.50
2019-04-29T15:48:29.138Z,11.60
2019-04-29T15:51:16.413Z,11.60
2019-04-29T15:54:04.037Z,11.50
2019-04-29T15:56:51.406Z,11.60
2019-04-29T15:59:48.373Z,11.70
2019-04-29T16:02:27.526Z,11.80
2019-04-29T16:05:33.630Z,11.80
2019-04-29T16:08:30.842Z,12.00
2019-04-29T16:11:36.054Z,12.00
2019-04-29T16:14:24.253Z,11.90
2019-04-29T16:17:11.413Z,11.90
2019-04-29T16:19:58.423Z,11.90
2019-04-29T16:22:45.929Z,11.90
2019-04-29T16:25:39.963Z,11.80
2019-04-29T16:28:24.268Z,11.80
2019-04-29T16:31:12.229Z,11.70
2019-04-29T16:34:00.162Z,11.80
2019-04-29T16:36:50.086Z,11.70
2019-04-29T16:39:36.837Z,11.60
2019-04-29T16:42:39.685Z,11.80
2019-04-29T16:45:38.849Z,11.70
2019-04-29T16:48:25.994Z,11.70
2019-04-29T16:51:16.718Z,11.70
2019-04-29T16:54:01.775Z,11.80
2019-04-29T16:56:49.145Z,11.80
2019-04-29T16:59:36.734Z,11.80
2019-04-29T17:02:24.005Z,11.80
2019-04-29T17:05:11.505Z,11.70
2019-04-29T17:07:58.837Z,11.80
2019-04-29T17:11:17.552Z,11.90
2019-04-29T17:14:10.084Z,11.80
2019-04-29T17:16:52.277Z,11.90
2019-04-29T17:19:39.789Z,11.80
2019-04-29T17:25:17.777Z,11.70
2019-04-29T17:31:41.170Z,11.70
2019-04-29T17:34:58.020Z,11.80
2019-04-29T17:35:17.350Z,11.80
2019-04-29T17:37:46.186Z,11.70
2019-04-29T17:40:51.026Z,11.60
2019-04-29T17:44:09.241Z,11.60
2019-04-29T17:47:28.686Z,11.60
2019-04-29T17:50:49.074Z,11.60
2019-04-29T17:53:54.874Z,11.60
2019-04-29T18:07:11.966Z,11.40
2019-04-29T18:10:29.597Z,11.50
2019-04-29T18:13:31.035Z,11.50
2019-04-29T18:20:08.507Z,11.40
2019-04-29T18:23:26.341Z,11.50
2019-04-29T18:26:35.723Z,11.40
2019-04-29T18:29:41.772Z,11.40
2019-04-29T18:32:42.205Z,11.40
2019-04-29T18:35:43.292Z,11.50
2019-04-29T18:38:47.543Z,11.40
2019-04-29T18:41:46.781Z,11.40
2019-04-29T18:44:54.938Z,11.50
2019-04-29T18:47:50.125Z,11.30
2019-04-29T18:50:50.919Z,11.40
2019-04-29T18:53:51.674Z,11.30
2019-04-29T18:56:52.529Z,11.30
2019-04-29T18:59:54.863Z,11.30
2019-04-29T19:02:58.424Z,11.30
2019-04-29T19:06:03.134Z,11.40
2019-04-29T19:09:02.803Z,11.40
2019-04-29T19:12:05.238Z,11.30
2019-04-29T19:15:11.436Z,11.30
2019-04-29T19:18:12.342Z,11.40
2019-04-29T19:21:11.985Z,11.30
2019-04-29T19:24:12.910Z,11.40
2019-04-29T19:27:15.006Z,11.40
2019-04-29T19:30:20.772Z,11.30
2019-04-29T19:33:18.542Z,11.30
2019-04-29T19:36:21.769Z,11.40
2019-04-29T19:39:23.500Z,11.40
2019-04-29T19:42:29.679Z,11.40
2019-04-29T19:45:27.357Z,11.30
2019-04-29T19:48:28.733Z,11.40
2019-04-29T19:51:28.042Z,11.30
2019-04-29T19:54:36.134Z,11.30
2019-04-29T19:57:48.092Z,11.40
2019-04-29T20:07:52.166Z,11.30
2019-04-29T20:11:12.326Z,11.30
2019-04-29T20:14:19.491Z,11.40
2019-04-29T20:17:39.821Z,11.40
2019-04-29T20:20:51.848Z,11.40
2019-04-29T20:23:54.862Z,11.40
2019-04-29T20:26:55.574Z,11.40
2019-04-29T20:29:56.356Z,11.40
2019-04-29T20:33:00.924Z,11.40
2019-04-29T20:36:02.320Z,11.40
2019-04-29T20:39:02.604Z,11.40
2019-04-29T20:42:06.451Z,11.40
2019-04-29T20:45:06.340Z,11.40
2019-04-29T20:48:10.948Z,11.40
2019-04-29T20:51:13.264Z,11.40
2019-04-29T20:54:19.399Z,11.40
2019-04-29T20:57:22.223Z,11.40
2019-04-29T21:00:24.934Z,11.40
2019-04-29T21:03:30.254Z,11.40
2019-04-29T21:06:28.234Z,11.50
2019-04-29T21:09:30.169Z,11.40
2019-04-29T21:12:50.673Z,11.40
2019-04-29T21:16:11.109Z,11.30
2019-04-29T21:19:12.641Z,11.40
2019-04-29T21:22:20.371Z,11.30
2019-04-29T21:25:15.801Z,11.30
2019-04-29T21:28:16.402Z,11.40
2019-04-29T21:31:20.049Z,11.30
2019-04-29T21:34:21.409Z,11.30
2019-04-29T21:40:57.118Z,11.30
2019-04-29T21:43:58.113Z,11.30
2019-04-29T21:46:59.778Z,11.30
2019-04-29T21:50:01.918Z,11.20
2019-04-29T21:53:03.433Z,11.20
2019-04-29T21:56:09.103Z,11.20
2019-04-29T21:59:12.134Z,11.00
2019-04-29T22:02:11.418Z,11.00
2019-04-29T22:05:16.917Z,11.00
2019-04-29T22:08:16.268Z,11.00
2019-04-29T22:11:17.807Z,11.00
2019-04-29T22:14:18.722Z,10.90
2019-04-29T22:17:19.562Z,11.00
2019-04-29T22:20:20.297Z,11.10
2019-04-29T22:23:21.604Z,11.00
2019-04-29T22:26:23.452Z,11.00
2019-04-29T22:29:25.245Z,11.00
2019-04-29T22:32:25.601Z,11.00
2019-04-29T22:35:27.754Z,11.10
2019-04-29T22:38:28.982Z,11.00
2019-04-29T22:41:52.748Z,11.00
2019-04-29T22:44:57.370Z,11.00
2019-04-29T22:48:12.053Z,11.00
2019-04-29T22:50:59.506Z,11.00
2019-04-29T22:54:00.447Z,10.90
2019-04-29T22:57:01.383Z,10.90
2019-04-29T23:00:01.918Z,10.90
2019-04-29T23:03:03.541Z,10.90
2019-04-29T23:06:08.296Z,10.90
2019-04-29T23:09:07.752Z,10.80
2019-04-29T23:12:17.000Z,10.90
2019-04-29T23:15:15.071Z,10.90
2019-04-29T23:18:24.564Z,10.90
2019-04-29T23:21:42.903Z,10.90
2019-04-29T23:24:59.686Z,10.90
2019-04-29T23:28:00.897Z,10.80
2019-04-29T23:31:01.634Z,10.80
2019-04-29T23:34:02.438Z,10.70
2019-04-29T23:37:03.630Z,10.80
2019-04-29T23:40:05.839Z,10.80
2019-04-29T23:43:06.371Z,10.70
2019-04-29T23:46:06.982Z,10.70
2019-04-29T23:49:08.024Z,10.60
2019-04-29T23:52:11.527Z,10.60
2019-04-29T23:55:11.534Z,10.60
2019-04-29T23:58:32.617Z,10.60
